sensor_id;sensor_type;location;lat;lon;timestamp;P1;durP1;ratioP1;P2;durP2;ratioP2
16407;SDS011;8313;49.894;8.084;2023-08-01T00:02:06;3.40;;;2.90;;
16407;SDS011;8313;49.894;8.084;2023-08-01T00:04:31;4.40;;;2.87;;
16407;SDS011;8313;49.894;8.084;2023-08-01T00:06:57;4.37;;;2.90;;
16407;SDS011;8313;49.894;8.084;2023-08-01T00:09:23;5.17;;;3.33;;
16407;SDS011;8313;49.894;8.084;2023-08-01T00:11:48;7.60;;;3.20;;
16407;SDS011;8313;49.894;8.084;2023-08-01T00:14:14;3.00;;;2.80;;
16407;SDS011;8313;49.894;8.084;2023-08-01T00:16:39;4.27;;;2.80;;
16407;SDS011;8313;49.894;8.084;2023-08-01T00:19:05;2.80;;;2.60;;
16407;SDS011;8313;49.894;8.084;2023-08-01T00:21:31;4.27;;;3.27;;
16407;SDS011;8313;49.894;8.084;2023-08-01T00:23:57;3.83;;;2.63;;
16407;SDS011;8313;49.894;8.084;2023-08-01T00:26:22;2.63;;;2.43;;
16407;SDS011;8313;49.894;8.084;2023-08-01T00:28:48;4.57;;;3.13;;
16407;SDS011;8313;49.894;8.084;2023-08-01T00:31:14;8.10;;;3.33;;
16407;SDS011;8313;49.894;8.084;2023-08-01T00:33:40;6.47;;;3.20;;
16407;SDS011;8313;49.894;8.084;2023-08-01T00:36:05;4.00;;;3.17;;
16407;SDS011;8313;49.894;8.084;2023-08-01T00:38:36;4.03;;;3.23;;
16407;SDS011;8313;49.894;8.084;2023-08-01T00:41:02;3.37;;;2.80;;
16407;SDS011;8313;49.894;8.084;2023-08-01T00:43:28;4.57;;;3.43;;
16407;SDS011;8313;49.894;8.084;2023-08-01T00:45:55;5.70;;;3.50;;
16407;SDS011;8313;49.894;8.084;2023-08-01T00:48:26;4.50;;;3.13;;
16407;SDS011;8313;49.894;8.084;2023-08-01T00:50:52;4.93;;;4.10;;
16407;SDS011;8313;49.894;8.084;2023-08-01T00:53:18;5.80;;;3.43;;
16407;SDS011;8313;49.894;8.084;2023-08-01T00:55:44;5.80;;;3.23;;
16407;SDS011;8313;49.894;8.084;2023-08-01T00:58:10;4.30;;;3.37;;
16407;SDS011;8313;49.894;8.084;2023-08-01T01:00:36;4.70;;;2.60;;
16407;SDS011;8313;49.894;8.084;2023-08-01T01:03:01;5.10;;;3.30;;
16407;SDS011;8313;49.894;8.084;2023-08-01T01:05:28;4.40;;;3.60;;
16407;SDS011;8313;49.894;8.084;2023-08-01T01:07:58;3.70;;;3.13;;
16407;SDS011;8313;49.894;8.084;2023-08-01T01:10:24;7.27;;;3.87;;
16407;SDS011;8313;49.894;8.084;2023-08-01T01:12:50;4.30;;;2.80;;
16407;SDS011;8313;49.894;8.084;2023-08-01T01:15:15;4.30;;;3.23;;
16407;SDS011;8313;49.894;8.084;2023-08-01T01:17:41;5.20;;;3.20;;
16407;SDS011;8313;49.894;8.084;2023-08-01T01:20:07;4.23;;;3.20;;
16407;SDS011;8313;49.894;8.084;2023-08-01T01:22:33;5.67;;;3.60;;
16407;SDS011;8313;49.894;8.084;2023-08-01T01:24:59;5.43;;;3.57;;
16407;SDS011;8313;49.894;8.084;2023-08-01T01:27:26;3.63;;;3.10;;
16407;SDS011;8313;49.894;8.084;2023-08-01T01:29:53;4.70;;;3.60;;
16407;SDS011;8313;49.894;8.084;2023-08-01T01:32:20;4.07;;;3.30;;
16407;SDS011;8313;49.894;8.084;2023-08-01T01:34:47;3.60;;;3.30;;
16407;SDS011;8313;49.894;8.084;2023-08-01T01:37:12;5.23;;;3.63;;
16407;SDS011;8313;49.894;8.084;2023-08-01T01:39:38;4.63;;;3.20;;
16407;SDS011;8313;49.894;8.084;2023-08-01T01:42:04;3.70;;;3.07;;
16407;SDS011;8313;49.894;8.084;2023-08-01T01:44:30;3.40;;;3.00;;
16407;SDS011;8313;49.894;8.084;2023-08-01T01:46:56;5.50;;;2.97;;
16407;SDS011;8313;49.894;8.084;2023-08-01T01:49:22;6.50;;;3.00;;
16407;SDS011;8313;49.894;8.084;2023-08-01T01:51:47;4.30;;;2.97;;
16407;SDS011;8313;49.894;8.084;2023-08-01T01:54:13;4.67;;;2.70;;
16407;SDS011;8313;49.894;8.084;2023-08-01T01:56:39;2.67;;;2.47;;
16407;SDS011;8313;49.894;8.084;2023-08-01T01:59:04;5.30;;;3.07;;
16407;SDS011;8313;49.894;8.084;2023-08-01T02:01:30;6.03;;;2.57;;
16407;SDS011;8313;49.894;8.084;2023-08-01T02:03:55;2.53;;;2.30;;
16407;SDS011;8313;49.894;8.084;2023-08-01T02:06:21;3.07;;;1.80;;
16407;SDS011;8313;49.894;8.084;2023-08-01T02:08:47;2.10;;;1.90;;
16407;SDS011;8313;49.894;8.084;2023-08-01T02:11:12;2.13;;;1.73;;
16407;SDS011;8313;49.894;8.084;2023-08-01T02:13:38;2.37;;;1.63;;
16407;SDS011;8313;49.894;8.084;2023-08-01T02:16:04;2.70;;;1.77;;
16407;SDS011;8313;49.894;8.084;2023-08-01T02:18:29;2.40;;;1.67;;
16407;SDS011;8313;49.894;8.084;2023-08-01T02:20:55;3.00;;;2.07;;
16407;SDS011;8313;49.894;8.084;2023-08-01T02:23:21;2.17;;;1.93;;
16407;SDS011;8313;49.894;8.084;2023-08-01T02:25:46;2.30;;;1.80;;
16407;SDS011;8313;49.894;8.084;2023-08-01T02:28:12;1.40;;;1.30;;
16407;SDS011;8313;49.894;8.084;2023-08-01T02:30:38;2.20;;;1.70;;
16407;SDS011;8313;49.894;8.084;2023-08-01T02:33:03;2.70;;;1.70;;
16407;SDS011;8313;49.894;8.084;2023-08-01T02:35:29;2.40;;;1.60;;
16407;SDS011;8313;49.894;8.084;2023-08-01T02:37:55;5.63;;;2.53;;
16407;SDS011;8313;49.894;8.084;2023-08-01T02:40:21;2.10;;;1.50;;
16407;SDS011;8313;49.894;8.084;2023-08-01T02:42:47;1.87;;;1.77;;
16407;SDS011;8313;49.894;8.084;2023-08-01T02:45:14;2.27;;;1.77;;
16407;SDS011;8313;49.894;8.084;2023-08-01T02:47:39;3.73;;;2.27;;
16407;SDS011;8313;49.894;8.084;2023-08-01T02:50:05;3.13;;;1.80;;
16407;SDS011;8313;49.894;8.084;2023-08-01T02:52:31;1.50;;;1.40;;
16407;SDS011;8313;49.894;8.084;2023-08-01T02:54:57;2.20;;;1.80;;
16407;SDS011;8313;49.894;8.084;2023-08-01T02:57:23;1.60;;;1.50;;
16407;SDS011;8313;49.894;8.084;2023-08-01T02:59:49;1.80;;;1.60;;
16407;SDS011;8313;49.894;8.084;2023-08-01T03:02:15;3.03;;;2.10;;
16407;SDS011;8313;49.894;8.084;2023-08-01T03:04:41;3.30;;;2.43;;
16407;SDS011;8313;49.894;8.084;2023-08-01T03:07:06;2.07;;;1.90;;
16407;SDS011;8313;49.894;8.084;2023-08-01T03:09:32;2.10;;;1.90;;
16407;SDS011;8313;49.894;8.084;2023-08-01T03:11:58;3.40;;;2.47;;
16407;SDS011;8313;49.894;8.084;2023-08-01T03:14:24;1.97;;;1.77;;
16407;SDS011;8313;49.894;8.084;2023-08-01T03:16:49;2.60;;;2.40;;
16407;SDS011;8313;49.894;8.084;2023-08-01T03:19:15;3.00;;;2.47;;
16407;SDS011;8313;49.894;8.084;2023-08-01T03:21:41;1.90;;;1.80;;
16407;SDS011;8313;49.894;8.084;2023-08-01T03:24:06;3.10;;;2.47;;
16407;SDS011;8313;49.894;8.084;2023-08-01T03:26:34;3.60;;;2.60;;
16407;SDS011;8313;49.894;8.084;2023-08-01T03:29:00;4.37;;;2.30;;
16407;SDS011;8313;49.894;8.084;2023-08-01T03:31:26;2.70;;;2.03;;
16407;SDS011;8313;49.894;8.084;2023-08-01T03:33:53;2.50;;;2.30;;
16407;SDS011;8313;49.894;8.084;2023-08-01T03:36:18;2.57;;;2.10;;
16407;SDS011;8313;49.894;8.084;2023-08-01T03:38:45;4.93;;;1.90;;
16407;SDS011;8313;49.894;8.084;2023-08-01T03:41:11;3.00;;;2.40;;
16407;SDS011;8313;49.894;8.084;2023-08-01T03:43:36;2.80;;;1.87;;
16407;SDS011;8313;49.894;8.084;2023-08-01T03:46:02;3.50;;;2.47;;
16407;SDS011;8313;49.894;8.084;2023-08-01T03:48:28;2.60;;;1.87;;
16407;SDS011;8313;49.894;8.084;2023-08-01T03:50:53;2.60;;;2.40;;
16407;SDS011;8313;49.894;8.084;2023-08-01T03:53:19;3.53;;;1.90;;
16407;SDS011;8313;49.894;8.084;2023-08-01T03:55:46;4.27;;;1.77;;
16407;SDS011;8313;49.894;8.084;2023-08-01T03:58:13;2.43;;;1.90;;
16407;SDS011;8313;49.894;8.084;2023-08-01T04:00:39;3.20;;;1.93;;
16407;SDS011;8313;49.894;8.084;2023-08-01T04:03:04;7.40;;;2.43;;
16407;SDS011;8313;49.894;8.084;2023-08-01T04:05:30;3.33;;;2.10;;
16407;SDS011;8313;49.894;8.084;2023-08-01T04:07:56;3.30;;;2.57;;
16407;SDS011;8313;49.894;8.084;2023-08-01T04:10:22;3.40;;;2.80;;
16407;SDS011;8313;49.894;8.084;2023-08-01T04:12:48;2.70;;;1.70;;
16407;SDS011;8313;49.894;8.084;2023-08-01T04:15:14;4.43;;;1.80;;
16407;SDS011;8313;49.894;8.084;2023-08-01T04:17:40;3.30;;;2.47;;
16407;SDS011;8313;49.894;8.084;2023-08-01T04:20:05;2.20;;;2.03;;
16407;SDS011;8313;49.894;8.084;2023-08-01T04:22:32;2.73;;;1.90;;
16407;SDS011;8313;49.894;8.084;2023-08-01T04:24:57;2.83;;;1.90;;
16407;SDS011;8313;49.894;8.084;2023-08-01T04:27:23;1.67;;;1.50;;
16407;SDS011;8313;49.894;8.084;2023-08-01T04:29:49;1.63;;;1.53;;
16407;SDS011;8313;49.894;8.084;2023-08-01T04:32:14;1.50;;;1.40;;
16407;SDS011;8313;49.894;8.084;2023-08-01T04:34:40;2.30;;;2.00;;
16407;SDS011;8313;49.894;8.084;2023-08-01T04:37:06;3.47;;;1.67;;
16407;SDS011;8313;49.894;8.084;2023-08-01T04:39:33;2.13;;;1.40;;
16407;SDS011;8313;49.894;8.084;2023-08-01T04:41:59;2.33;;;1.43;;
16407;SDS011;8313;49.894;8.084;2023-08-01T04:44:24;1.80;;;1.50;;
16407;SDS011;8313;49.894;8.084;2023-08-01T04:46:50;2.13;;;1.50;;
16407;SDS011;8313;49.894;8.084;2023-08-01T04:49:16;1.40;;;1.30;;
16407;SDS011;8313;49.894;8.084;2023-08-01T04:51:41;1.20;;;1.10;;
16407;SDS011;8313;49.894;8.084;2023-08-01T04:54:07;2.40;;;1.43;;
16407;SDS011;8313;49.894;8.084;2023-08-01T04:56:32;1.43;;;1.33;;
16407;SDS011;8313;49.894;8.084;2023-08-01T04:58:58;1.63;;;1.53;;
16407;SDS011;8313;49.894;8.084;2023-08-01T05:01:24;1.50;;;1.37;;
16407;SDS011;8313;49.894;8.084;2023-08-01T05:03:49;2.07;;;1.80;;
16407;SDS011;8313;49.894;8.084;2023-08-01T05:06:15;2.20;;;1.80;;
16407;SDS011;8313;49.894;8.084;2023-08-01T05:08:41;1.60;;;1.30;;
16407;SDS011;8313;49.894;8.084;2023-08-01T05:11:06;4.20;;;1.27;;
16407;SDS011;8313;49.894;8.084;2023-08-01T05:13:32;2.53;;;1.40;;
16407;SDS011;8313;49.894;8.084;2023-08-01T05:15:58;1.50;;;1.40;;
16407;SDS011;8313;49.894;8.084;2023-08-01T05:18:23;1.30;;;1.20;;
16407;SDS011;8313;49.894;8.084;2023-08-01T05:20:49;1.83;;;1.03;;
16407;SDS011;8313;49.894;8.084;2023-08-01T05:23:15;1.27;;;1.00;;
16407;SDS011;8313;49.894;8.084;2023-08-01T05:25:40;1.30;;;1.20;;
16407;SDS011;8313;49.894;8.084;2023-08-01T05:28:06;1.20;;;1.10;;
16407;SDS011;8313;49.894;8.084;2023-08-01T05:30:32;1.43;;;1.10;;
16407;SDS011;8313;49.894;8.084;2023-08-01T05:32:58;1.83;;;1.10;;
16407;SDS011;8313;49.894;8.084;2023-08-01T05:35:23;1.20;;;0.97;;
16407;SDS011;8313;49.894;8.084;2023-08-01T05:37:49;1.70;;;0.90;;
16407;SDS011;8313;49.894;8.084;2023-08-01T05:40:15;1.37;;;1.00;;
16407;SDS011;8313;49.894;8.084;2023-08-01T05:42:40;1.63;;;1.37;;
16407;SDS011;8313;49.894;8.084;2023-08-01T05:45:06;1.17;;;1.07;;
16407;SDS011;8313;49.894;8.084;2023-08-01T05:47:32;3.00;;;1.20;;
16407;SDS011;8313;49.894;8.084;2023-08-01T05:49:58;2.87;;;1.20;;
16407;SDS011;8313;49.894;8.084;2023-08-01T05:52:23;1.30;;;1.10;;
16407;SDS011;8313;49.894;8.084;2023-08-01T05:54:49;1.13;;;1.00;;
16407;SDS011;8313;49.894;8.084;2023-08-01T05:57:15;1.13;;;1.03;;
16407;SDS011;8313;49.894;8.084;2023-08-01T05:59:40;1.23;;;0.87;;
16407;SDS011;8313;49.894;8.084;2023-08-01T06:02:06;1.70;;;1.60;;
16407;SDS011;8313;49.894;8.084;2023-08-01T06:04:32;1.83;;;1.50;;
16407;SDS011;8313;49.894;8.084;2023-08-01T06:06:57;1.47;;;1.33;;
16407;SDS011;8313;49.894;8.084;2023-08-01T06:09:24;1.60;;;1.40;;
16407;SDS011;8313;49.894;8.084;2023-08-01T06:11:50;1.73;;;1.40;;
16407;SDS011;8313;49.894;8.084;2023-08-01T06:14:16;1.30;;;1.20;;
16407;SDS011;8313;49.894;8.084;2023-08-01T06:16:42;2.80;;;1.77;;
16407;SDS011;8313;49.894;8.084;2023-08-01T06:19:07;2.40;;;1.60;;
16407;SDS011;8313;49.894;8.084;2023-08-01T06:21:33;1.50;;;1.33;;
16407;SDS011;8313;49.894;8.084;2023-08-01T06:23:59;2.27;;;1.77;;
16407;SDS011;8313;49.894;8.084;2023-08-01T06:26:25;1.50;;;1.40;;
16407;SDS011;8313;49.894;8.084;2023-08-01T06:28:50;3.30;;;1.40;;
16407;SDS011;8313;49.894;8.084;2023-08-01T06:31:19;2.70;;;1.27;;
16407;SDS011;8313;49.894;8.084;2023-08-01T06:33:45;1.30;;;1.17;;
16407;SDS011;8313;49.894;8.084;2023-08-01T06:36:11;1.00;;;1.00;;
16407;SDS011;8313;49.894;8.084;2023-08-01T06:38:38;1.97;;;1.10;;
16407;SDS011;8313;49.894;8.084;2023-08-01T06:41:04;0.60;;;0.60;;
16407;SDS011;8313;49.894;8.084;2023-08-01T06:43:29;0.60;;;0.40;;
16407;SDS011;8313;49.894;8.084;2023-08-01T06:45:55;0.57;;;0.57;;
16407;SDS011;8313;49.894;8.084;2023-08-01T06:48:21;0.60;;;0.60;;
16407;SDS011;8313;49.894;8.084;2023-08-01T06:50:46;1.03;;;0.57;;
16407;SDS011;8313;49.894;8.084;2023-08-01T06:53:12;1.00;;;0.80;;
16407;SDS011;8313;49.894;8.084;2023-08-01T06:55:38;0.50;;;0.40;;
16407;SDS011;8313;49.894;8.084;2023-08-01T06:58:04;0.83;;;0.50;;
16407;SDS011;8313;49.894;8.084;2023-08-01T07:00:30;0.50;;;0.43;;
16407;SDS011;8313;49.894;8.084;2023-08-01T07:02:57;0.90;;;0.40;;
16407;SDS011;8313;49.894;8.084;2023-08-01T07:05:22;0.50;;;0.40;;
16407;SDS011;8313;49.894;8.084;2023-08-01T07:07:48;0.67;;;0.60;;
16407;SDS011;8313;49.894;8.084;2023-08-01T07:10:14;0.70;;;0.53;;
16407;SDS011;8313;49.894;8.084;2023-08-01T07:12:40;1.23;;;0.50;;
16407;SDS011;8313;49.894;8.084;2023-08-01T07:15:06;1.23;;;0.40;;
16407;SDS011;8313;49.894;8.084;2023-08-01T07:17:32;0.40;;;0.30;;
16407;SDS011;8313;49.894;8.084;2023-08-01T07:19:58;0.50;;;0.40;;
16407;SDS011;8313;49.894;8.084;2023-08-01T07:22:24;0.50;;;0.43;;
16407;SDS011;8313;49.894;8.084;2023-08-01T07:24:53;0.50;;;0.40;;
16407;SDS011;8313;49.894;8.084;2023-08-01T07:27:19;1.00;;;1.00;;
16407;SDS011;8313;49.894;8.084;2023-08-01T07:29:46;2.30;;;1.43;;
16407;SDS011;8313;49.894;8.084;2023-08-01T07:32:12;0.60;;;0.60;;
16407;SDS011;8313;49.894;8.084;2023-08-01T07:34:37;0.50;;;0.50;;
16407;SDS011;8313;49.894;8.084;2023-08-01T07:37:03;0.50;;;0.50;;
16407;SDS011;8313;49.894;8.084;2023-08-01T07:39:29;0.60;;;0.57;;
16407;SDS011;8313;49.894;8.084;2023-08-01T07:41:55;3.67;;;0.70;;
16407;SDS011;8313;49.894;8.084;2023-08-01T07:44:21;0.83;;;0.80;;
16407;SDS011;8313;49.894;8.084;2023-08-01T07:46:47;0.90;;;0.70;;
16407;SDS011;8313;49.894;8.084;2023-08-01T07:49:12;0.77;;;0.77;;
16407;SDS011;8313;49.894;8.084;2023-08-01T07:51:38;1.30;;;0.63;;
16407;SDS011;8313;49.894;8.084;2023-08-01T07:54:04;0.70;;;0.53;;
16407;SDS011;8313;49.894;8.084;2023-08-01T07:56:29;0.50;;;0.50;;
16407;SDS011;8313;49.894;8.084;2023-08-01T07:58:55;1.50;;;0.70;;
16407;SDS011;8313;49.894;8.084;2023-08-01T08:01:21;0.60;;;0.60;;
16407;SDS011;8313;49.894;8.084;2023-08-01T08:03:46;0.93;;;0.83;;
16407;SDS011;8313;49.894;8.084;2023-08-01T08:06:12;1.43;;;0.80;;
16407;SDS011;8313;49.894;8.084;2023-08-01T08:08:38;0.77;;;0.70;;
16407;SDS011;8313;49.894;8.084;2023-08-01T08:11:03;1.53;;;1.00;;
16407;SDS011;8313;49.894;8.084;2023-08-01T08:13:29;1.53;;;1.00;;
16407;SDS011;8313;49.894;8.084;2023-08-01T08:15:55;1.10;;;1.00;;
16407;SDS011;8313;49.894;8.084;2023-08-01T08:18:22;0.97;;;0.93;;
16407;SDS011;8313;49.894;8.084;2023-08-01T08:20:48;0.80;;;0.80;;
16407;SDS011;8313;49.894;8.084;2023-08-01T08:23:13;0.90;;;0.90;;
16407;SDS011;8313;49.894;8.084;2023-08-01T08:25:42;1.53;;;0.87;;
16407;SDS011;8313;49.894;8.084;2023-08-01T08:28:12;0.80;;;0.80;;
16407;SDS011;8313;49.894;8.084;2023-08-01T08:30:38;1.30;;;1.13;;
16407;SDS011;8313;49.894;8.084;2023-08-01T08:33:04;1.23;;;1.13;;
16407;SDS011;8313;49.894;8.084;2023-08-01T08:35:32;1.03;;;1.00;;
16407;SDS011;8313;49.894;8.084;2023-08-01T08:38:01;1.10;;;1.00;;
16407;SDS011;8313;49.894;8.084;2023-08-01T08:40:29;1.13;;;1.13;;
16407;SDS011;8313;49.894;8.084;2023-08-01T08:42:56;1.47;;;1.37;;
16407;SDS011;8313;49.894;8.084;2023-08-01T08:45:26;1.30;;;1.20;;
16407;SDS011;8313;49.894;8.084;2023-08-01T08:47:58;2.60;;;1.63;;
16407;SDS011;8313;49.894;8.084;2023-08-01T08:50:32;1.27;;;1.17;;
16407;SDS011;8313;49.894;8.084;2023-08-01T08:53:00;2.20;;;1.60;;
16407;SDS011;8313;49.894;8.084;2023-08-01T08:55:27;4.10;;;1.90;;
16407;SDS011;8313;49.894;8.084;2023-08-01T08:57:53;1.83;;;1.60;;
16407;SDS011;8313;49.894;8.084;2023-08-01T09:00:20;1.50;;;1.33;;
16407;SDS011;8313;49.894;8.084;2023-08-01T09:02:47;3.07;;;1.50;;
16407;SDS011;8313;49.894;8.084;2023-08-01T09:05:13;2.20;;;1.50;;
16407;SDS011;8313;49.894;8.084;2023-08-01T09:07:43;1.97;;;1.23;;
16407;SDS011;8313;49.894;8.084;2023-08-01T09:10:12;2.90;;;1.33;;
16407;SDS011;8313;49.894;8.084;2023-08-01T09:12:38;3.20;;;1.20;;
16407;SDS011;8313;49.894;8.084;2023-08-01T09:15:04;1.80;;;1.40;;
16407;SDS011;8313;49.894;8.084;2023-08-01T09:17:30;2.10;;;1.50;;
16407;SDS011;8313;49.894;8.084;2023-08-01T09:20:03;1.20;;;1.10;;
16407;SDS011;8313;49.894;8.084;2023-08-01T09:22:42;3.47;;;1.50;;
16407;SDS011;8313;49.894;8.084;2023-08-01T09:25:09;1.67;;;1.57;;
16407;SDS011;8313;49.894;8.084;2023-08-01T09:27:34;1.60;;;1.50;;
16407;SDS011;8313;49.894;8.084;2023-08-01T09:32:39;1.60;;;1.50;;
16407;SDS011;8313;49.894;8.084;2023-08-01T09:35:04;1.67;;;1.50;;
16407;SDS011;8313;49.894;8.084;2023-08-01T09:38:04;3.13;;;2.03;;
16407;SDS011;8313;49.894;8.084;2023-08-01T09:40:25;1.70;;;1.60;;
16407;SDS011;8313;49.894;8.084;2023-08-01T09:42:50;1.70;;;1.60;;
16407;SDS011;8313;49.894;8.084;2023-08-01T09:45:16;1.37;;;1.20;;
16407;SDS011;8313;49.894;8.084;2023-08-01T09:47:43;1.50;;;1.40;;
16407;SDS011;8313;49.894;8.084;2023-08-01T09:50:10;1.27;;;1.17;;
16407;SDS011;8313;49.894;8.084;2023-08-01T09:52:38;1.57;;;1.47;;
16407;SDS011;8313;49.894;8.084;2023-08-01T09:55:04;1.70;;;1.60;;
16407;SDS011;8313;49.894;8.084;2023-08-01T09:57:30;1.60;;;1.50;;
16407;SDS011;8313;49.894;8.084;2023-08-01T09:59:57;1.47;;;1.37;;
16407;SDS011;8313;49.894;8.084;2023-08-01T10:02:24;1.70;;;1.60;;
16407;SDS011;8313;49.894;8.084;2023-08-01T10:04:56;2.30;;;1.73;;
16407;SDS011;8313;49.894;8.084;2023-08-01T10:07:23;1.60;;;1.50;;
16407;SDS011;8313;49.894;8.084;2023-08-01T10:09:52;2.33;;;1.70;;
16407;SDS011;8313;49.894;8.084;2023-08-01T10:12:20;1.67;;;1.57;;
16407;SDS011;8313;49.894;8.084;2023-08-01T10:14:49;1.30;;;1.20;;
16407;SDS011;8313;49.894;8.084;2023-08-01T10:17:16;1.50;;;1.40;;
16407;SDS011;8313;49.894;8.084;2023-08-01T10:19:42;2.43;;;1.70;;
16407;SDS011;8313;49.894;8.084;2023-08-01T10:22:07;5.07;;;1.90;;
16407;SDS011;8313;49.894;8.084;2023-08-01T10:24:34;1.30;;;1.20;;
16407;SDS011;8313;49.894;8.084;2023-08-01T10:27:14;1.80;;;1.70;;
16407;SDS011;8313;49.894;8.084;2023-08-01T10:29:44;1.93;;;1.40;;
16407;SDS011;8313;49.894;8.084;2023-08-01T10:32:11;1.40;;;1.30;;
16407;SDS011;8313;49.894;8.084;2023-08-01T10:34:36;1.67;;;1.30;;
16407;SDS011;8313;49.894;8.084;2023-08-01T10:37:02;1.80;;;1.70;;
16407;SDS011;8313;49.894;8.084;2023-08-01T10:39:28;3.73;;;2.20;;
16407;SDS011;8313;49.894;8.084;2023-08-01T10:41:58;1.30;;;1.23;;
16407;SDS011;8313;49.894;8.084;2023-08-01T10:44:28;1.87;;;1.70;;
16407;SDS011;8313;49.894;8.084;2023-08-01T10:47:03;1.60;;;1.47;;
16407;SDS011;8313;49.894;8.084;2023-08-01T10:52:24;2.90;;;1.63;;
16407;SDS011;8313;49.894;8.084;2023-08-01T10:54:56;1.50;;;1.40;;
16407;SDS011;8313;49.894;8.084;2023-08-01T10:57:29;2.60;;;2.40;;
16407;SDS011;8313;49.894;8.084;2023-08-01T10:59:56;4.73;;;1.33;;
16407;SDS011;8313;49.894;8.084;2023-08-01T11:02:25;3.03;;;2.07;;
16407;SDS011;8313;49.894;8.084;2023-08-01T11:07:25;5.43;;;1.40;;
16407;SDS011;8313;49.894;8.084;2023-08-01T11:10:02;2.03;;;1.80;;
16407;SDS011;8313;49.894;8.084;2023-08-01T11:12:35;5.00;;;1.57;;
16407;SDS011;8313;49.894;8.084;2023-08-01T11:15:09;2.87;;;1.50;;
16407;SDS011;8313;49.894;8.084;2023-08-01T11:17:36;1.50;;;1.40;;
16407;SDS011;8313;49.894;8.084;2023-08-01T11:20:03;1.60;;;1.50;;
16407;SDS011;8313;49.894;8.084;2023-08-01T11:22:33;1.70;;;1.60;;
16407;SDS011;8313;49.894;8.084;2023-08-01T11:24:59;2.00;;;1.90;;
16407;SDS011;8313;49.894;8.084;2023-08-01T11:27:25;1.40;;;1.30;;
16407;SDS011;8313;49.894;8.084;2023-08-01T11:29:52;1.93;;;1.73;;
16407;SDS011;8313;49.894;8.084;2023-08-01T11:32:21;2.10;;;1.60;;
16407;SDS011;8313;49.894;8.084;2023-08-01T11:34:57;3.70;;;1.60;;
16407;SDS011;8313;49.894;8.084;2023-08-01T11:37:25;2.50;;;2.13;;
16407;SDS011;8313;49.894;8.084;2023-08-01T11:39:51;2.27;;;1.53;;
16407;SDS011;8313;49.894;8.084;2023-08-01T11:42:17;1.70;;;1.53;;
16407;SDS011;8313;49.894;8.084;2023-08-01T11:44:43;1.80;;;1.50;;
16407;SDS011;8313;49.894;8.084;2023-08-01T11:47:13;2.37;;;1.67;;
16407;SDS011;8313;49.894;8.084;2023-08-01T11:49:39;1.60;;;1.47;;
16407;SDS011;8313;49.894;8.084;2023-08-01T11:52:10;3.20;;;1.40;;
16407;SDS011;8313;49.894;8.084;2023-08-01T11:54:46;2.20;;;1.30;;
16407;SDS011;8313;49.894;8.084;2023-08-01T11:57:12;2.47;;;1.90;;
16407;SDS011;8313;49.894;8.084;2023-08-01T11:59:45;2.20;;;1.97;;
16407;SDS011;8313;49.894;8.084;2023-08-01T12:02:22;3.13;;;1.83;;
16407;SDS011;8313;49.894;8.084;2023-08-01T12:04:52;2.10;;;1.77;;
16407;SDS011;8313;49.894;8.084;2023-08-01T12:07:19;1.87;;;1.40;;
16407;SDS011;8313;49.894;8.084;2023-08-01T12:09:54;3.90;;;1.43;;
16407;SDS011;8313;49.894;8.084;2023-08-01T12:12:25;1.67;;;1.57;;
16407;SDS011;8313;49.894;8.084;2023-08-01T12:14:52;2.03;;;1.63;;
16407;SDS011;8313;49.894;8.084;2023-08-01T12:17:19;2.40;;;2.20;;
16407;SDS011;8313;49.894;8.084;2023-08-01T12:19:45;1.60;;;1.50;;
16407;SDS011;8313;49.894;8.084;2023-08-01T12:22:11;2.73;;;1.60;;
16407;SDS011;8313;49.894;8.084;2023-08-01T12:24:37;1.23;;;1.13;;
16407;SDS011;8313;49.894;8.084;2023-08-01T12:27:09;1.33;;;1.23;;
16407;SDS011;8313;49.894;8.084;2023-08-01T12:29:35;1.70;;;1.60;;
16407;SDS011;8313;49.894;8.084;2023-08-01T12:32:02;1.87;;;1.60;;
16407;SDS011;8313;49.894;8.084;2023-08-01T12:34:28;1.47;;;1.37;;
16407;SDS011;8313;49.894;8.084;2023-08-01T12:36:54;1.80;;;1.70;;
16407;SDS011;8313;49.894;8.084;2023-08-01T12:39:19;2.63;;;1.30;;
16407;SDS011;8313;49.894;8.084;2023-08-01T12:41:45;1.60;;;1.50;;
16407;SDS011;8313;49.894;8.084;2023-08-01T12:44:11;2.50;;;2.30;;
16407;SDS011;8313;49.894;8.084;2023-08-01T12:46:40;6.80;;;1.70;;
16407;SDS011;8313;49.894;8.084;2023-08-01T12:49:06;1.63;;;1.47;;
16407;SDS011;8313;49.894;8.084;2023-08-01T12:51:32;1.37;;;1.20;;
16407;SDS011;8313;49.894;8.084;2023-08-01T12:53:58;1.87;;;1.33;;
16407;SDS011;8313;49.894;8.084;2023-08-01T12:56:23;1.87;;;1.50;;
16407;SDS011;8313;49.894;8.084;2023-08-01T12:58:49;1.50;;;1.40;;
16407;SDS011;8313;49.894;8.084;2023-08-01T13:01:15;2.57;;;1.20;;
16407;SDS011;8313;49.894;8.084;2023-08-01T13:03:40;1.83;;;1.47;;
16407;SDS011;8313;49.894;8.084;2023-08-01T13:06:06;1.20;;;1.10;;
16407;SDS011;8313;49.894;8.084;2023-08-01T13:08:35;2.47;;;1.70;;
16407;SDS011;8313;49.894;8.084;2023-08-01T13:11:00;3.47;;;2.10;;
16407;SDS011;8313;49.894;8.084;2023-08-01T13:13:27;1.40;;;1.30;;
16407;SDS011;8313;49.894;8.084;2023-08-01T13:15:53;1.87;;;1.60;;
16407;SDS011;8313;49.894;8.084;2023-08-01T13:18:21;1.70;;;1.60;;
16407;SDS011;8313;49.894;8.084;2023-08-01T13:20:46;1.60;;;1.50;;
16407;SDS011;8313;49.894;8.084;2023-08-01T13:23:13;2.00;;;1.73;;
16407;SDS011;8313;49.894;8.084;2023-08-01T13:25:39;2.00;;;1.87;;
16407;SDS011;8313;49.894;8.084;2023-08-01T13:28:04;1.73;;;1.63;;
16407;SDS011;8313;49.894;8.084;2023-08-01T13:30:30;1.83;;;1.70;;
16407;SDS011;8313;49.894;8.084;2023-08-01T13:32:56;2.13;;;1.90;;
16407;SDS011;8313;49.894;8.084;2023-08-01T13:35:21;4.40;;;1.93;;
16407;SDS011;8313;49.894;8.084;2023-08-01T13:37:47;1.70;;;1.60;;
16407;SDS011;8313;49.894;8.084;2023-08-01T13:40:13;1.73;;;1.63;;
16407;SDS011;8313;49.894;8.084;2023-08-01T13:42:40;1.77;;;1.60;;
16407;SDS011;8313;49.894;8.084;2023-08-01T13:45:06;1.73;;;1.50;;
16407;SDS011;8313;49.894;8.084;2023-08-01T13:47:31;1.70;;;1.60;;
16407;SDS011;8313;49.894;8.084;2023-08-01T13:49:57;2.10;;;1.50;;
16407;SDS011;8313;49.894;8.084;2023-08-01T13:52:23;1.83;;;1.73;;
16407;SDS011;8313;49.894;8.084;2023-08-01T13:54:48;3.13;;;1.67;;
16407;SDS011;8313;49.894;8.084;2023-08-01T13:57:14;1.93;;;1.70;;
16407;SDS011;8313;49.894;8.084;2023-08-01T13:59:40;2.60;;;1.30;;
16407;SDS011;8313;49.894;8.084;2023-08-01T14:02:05;1.90;;;1.77;;
16407;SDS011;8313;49.894;8.084;2023-08-01T14:04:31;3.40;;;2.90;;
16407;SDS011;8313;49.894;8.084;2023-08-01T14:06:56;1.40;;;1.30;;
16407;SDS011;8313;49.894;8.084;2023-08-01T14:09:22;1.70;;;1.60;;
16407;SDS011;8313;49.894;8.084;2023-08-01T14:11:48;1.77;;;1.40;;
16407;SDS011;8313;49.894;8.084;2023-08-01T14:14:13;1.60;;;1.13;;
16407;SDS011;8313;49.894;8.084;2023-08-01T14:16:39;3.70;;;2.00;;
16407;SDS011;8313;49.894;8.084;2023-08-01T14:19:05;1.40;;;1.40;;
16407;SDS011;8313;49.894;8.084;2023-08-01T14:21:33;2.13;;;1.70;;
16407;SDS011;8313;49.894;8.084;2023-08-01T14:23:59;2.23;;;1.80;;
16407;SDS011;8313;49.894;8.084;2023-08-01T14:26:25;3.27;;;1.60;;
16407;SDS011;8313;49.894;8.084;2023-08-01T14:28:51;1.50;;;1.40;;
16407;SDS011;8313;49.894;8.084;2023-08-01T14:31:16;2.03;;;1.77;;
16407;SDS011;8313;49.894;8.084;2023-08-01T14:33:42;2.03;;;1.80;;
16407;SDS011;8313;49.894;8.084;2023-08-01T14:36:11;4.13;;;1.67;;
16407;SDS011;8313;49.894;8.084;2023-08-01T14:38:38;1.87;;;1.37;;
16407;SDS011;8313;49.894;8.084;2023-08-01T14:41:04;2.83;;;1.80;;
16407;SDS011;8313;49.894;8.084;2023-08-01T14:43:29;1.97;;;1.77;;
16407;SDS011;8313;49.894;8.084;2023-08-01T14:45:56;3.50;;;1.67;;
16407;SDS011;8313;49.894;8.084;2023-08-01T14:48:22;3.90;;;2.00;;
16407;SDS011;8313;49.894;8.084;2023-08-01T14:50:47;2.27;;;1.60;;
16407;SDS011;8313;49.894;8.084;2023-08-01T14:53:16;1.80;;;1.67;;
16407;SDS011;8313;49.894;8.084;2023-08-01T14:55:41;1.90;;;1.80;;
16407;SDS011;8313;49.894;8.084;2023-08-01T14:58:07;2.03;;;1.70;;
16407;SDS011;8313;49.894;8.084;2023-08-01T15:00:36;4.83;;;2.23;;
16407;SDS011;8313;49.894;8.084;2023-08-01T15:03:02;3.30;;;1.90;;
16407;SDS011;8313;49.894;8.084;2023-08-01T15:05:28;3.00;;;1.67;;